Time;durP1;ratioP1;P1;durP2;ratioP2;P2;SDS_P1;SDS_P2;PMS_P1;PMS_P2;Temp;Humidity;BMP_temperature;BMP_pressure;BME280_temperature;BME280_humidity;BME280_pressure;Samples;Min_cycle;Max_cycle;Signal;HPM_P1;HPM_P2
2022/06/23 00:00:24;;;;;;;4.60;2.47;;;19.50;99.90;;;;;;5050740;28;20612;-72
2022/06/23 00:02:51;;;;;;;5.80;2.80;;;19.40;99.90;;;;;;5047857;28;20500;-71
2022/06/23 00:05:21;;;;;;;3.43;1.90;;;19.30;99.90;;;;;;5050464;28;20544;-69
2022/06/23 00:07:56;;;;;;;2.30;1.90;;;19.20;99.90;;;;;;5051323;28;20475;-70
2022/06/23 00:10:27;;;;;;;6.73;2.70;;;19.10;99.90;;;;;;5056617;28;20502;-70
2022/06/23 00:12:54;;;;;;;2.40;2.20;;;19.10;99.90;;;;;;5056070;28;20486;-71
2022/06/23 00:15:27;;;;;;;2.63;1.80;;;19.00;99.90;;;;;;5051069;28;21220;-70
2022/06/23 00:18:00;;;;;;;3.17;2.30;;;19.00;99.90;;;;;;5056038;28;20463;-70
2022/06/23 00:20:32;;;;;;;2.17;1.77;;;19.00;99.90;;;;;;5047369;28;20467;-69
2022/06/23 00:23:20;;;;;;;5.30;2.10;;;18.90;99.90;;;;;;5048042;28;20467;-70
2022/06/23 00:25:52;;;;;;;3.80;2.20;;;18.80;99.90;;;;;;5048401;28;20867;-70
2022/06/23 00:28:23;;;;;;;5.23;2.40;;;18.80;99.90;;;;;;5047977;28;20521;-72
2022/06/23 00:30:55;;;;;;;2.63;1.70;;;18.90;99.90;;;;;;5044665;28;20451;-71
2022/06/23 00:33:26;;;;;;;2.07;1.87;;;18.90;99.90;;;;;;5051059;28;20552;-72
2022/06/23 00:35:53;;;;;;;2.53;2.33;;;18.90;99.90;;;;;;5049430;28;20542;-72
2022/06/23 00:38:38;;;;;;;2.90;2.10;;;19.00;99.90;;;;;;5052613;28;20521;-72
2022/06/23 00:41:14;;;;;;;6.70;2.13;;;19.20;99.90;;;;;;5053362;28;21088;-72
2022/06/23 00:43:46;;;;;;;7.13;2.80;;;19.20;99.90;;;;;;5047599;28;20474;-71
2022/06/23 00:46:22;;;;;;;4.87;2.10;;;19.20;99.90;;;;;;5056103;28;20959;-71
2022/06/23 00:48:55;;;;;;;4.33;2.20;;;19.00;99.90;;;;;;5054068;28;20466;-71
2022/06/23 00:51:24;;;;;;;4.20;2.00;;;18.80;99.90;;;;;;5056318;28;20570;-71
2022/06/23 00:53:58;;;;;;;2.33;2.03;;;18.70;99.90;;;;;;5055455;28;20582;-71
2022/06/23 00:56:38;;;;;;;3.90;2.10;;;18.50;99.90;;;;;;5057416;28;20557;-71
2022/06/23 00:59:15;;;;;;;4.30;2.23;;;18.50;99.90;;;;;;5053888;28;21006;-72
2022/06/23 01:01:49;;;;;;;1.93;1.73;;;18.50;99.90;;;;;;5052257;28;20859;-71
2022/06/23 01:04:27;;;;;;;4.47;2.10;;;18.50;99.90;;;;;;5057306;28;20466;-71
2022/06/23 01:07:00;;;;;;;3.10;2.10;;;18.50;99.90;;;;;;5051921;28;20451;-70
2022/06/23 01:09:36;;;;;;;2.27;2.07;;;18.50;99.90;;;;;;5054741;28;20962;-71
2022/06/23 01:12:13;;;;;;;2.60;2.00;;;18.10;99.90;;;;;;5054606;28;20490;-72
2022/06/23 01:14:47;;;;;;;2.77;2.37;;;18.00;99.90;;;;;;5048185;28;20473;-72
2022/06/23 01:17:18;;;;;;;4.60;2.60;;;18.20;99.90;;;;;;5053996;28;20479;-72
2022/06/23 01:20:12;;;;;;;2.17;1.90;;;18.20;99.90;;;;;;5058588;28;21239;-71
2022/06/23 01:22:56;;;;;;;4.17;2.30;;;18.20;99.90;;;;;;5053115;28;20474;-72
2022/06/23 01:25:40;;;;;;;2.60;1.93;;;18.20;99.90;;;;;;5042832;28;20482;-72
2022/06/23 01:28:14;;;;;;;2.40;2.17;;;18.30;99.90;;;;;;5055031;28;20463;-70
2022/06/23 01:30:48;;;;;;;8.13;3.60;;;18.30;99.90;;;;;;5051277;28;20561;-70
2022/06/23 01:33:21;;;;;;;2.20;1.70;;;18.30;99.90;;;;;;5049764;28;20486;-71
2022/06/23 01:35:58;;;;;;;2.60;2.40;;;18.20;99.90;;;;;;5053362;28;20550;-71
2022/06/23 01:38:32;;;;;;;5.00;2.20;;;18.30;99.90;;;;;;5051278;28;20486;-70
2022/06/23 01:41:05;;;;;;;2.87;2.23;;;18.30;99.90;;;;;;5051289;28;20480;-71
2022/06/23 01:43:40;;;;;;;2.27;1.93;;;18.30;99.90;;;;;;5042991;28;20471;-71
2022/06/23 01:46:13;;;;;;;5.70;2.60;;;18.30;99.90;;;;;;5052244;28;20459;-72
2022/06/23 01:48:52;;;;;;;3.93;2.60;;;18.30;99.90;;;;;;5052730;28;20553;-72
2022/06/23 01:51:32;;;;;;;2.40;2.03;;;18.30;99.90;;;;;;5051812;28;20566;-72
2022/06/23 01:54:11;;;;;;;2.73;2.10;;;18.20;99.90;;;;;;5057448;28;20430;-72
2022/06/23 01:56:50;;;;;;;4.13;2.20;;;18.20;99.90;;;;;;5050775;28;20783;-72
2022/06/23 01:59:37;;;;;;;4.93;1.97;;;18.30;99.90;;;;;;5058632;28;20437;-70
2022/06/23 02:02:18;;;;;;;3.37;2.57;;;18.40;99.90;;;;;;5051448;28;20970;-70
2022/06/23 02:04:54;;;;;;;2.53;2.10;;;18.20;99.90;;;;;;5058231;28;20478;-71
2022/06/23 02:07:26;;;;;;;3.70;2.10;;;18.00;99.90;;;;;;5052344;28;20471;-71
2022/06/23 02:09:55;;;;;;;3.70;2.50;;;17.80;99.90;;;;;;5050730;28;20568;-71
2022/06/23 02:12:28;;;;;;;3.53;2.10;;;17.80;99.90;;;;;;5050989;28;21212;-72
2022/06/23 02:15:05;;;;;;;2.27;1.57;;;17.90;99.90;;;;;;5044906;28;20545;-71
2022/06/23 02:17:41;;;;;;;2.33;1.70;;;17.80;99.90;;;;;;5043326;28;20478;-71
2022/06/23 02:20:26;;;;;;;2.57;2.37;;;17.90;99.90;;;;;;5053168;28;21100;-72
2022/06/23 02:23:06;;;;;;;3.67;2.00;;;17.90;99.90;;;;;;5053809;28;20494;-71
2022/06/23 02:25:39;;;;;;;7.30;3.73;;;17.80;99.90;;;;;;5040076;28;20478;-71
2022/06/23 02:28:13;;;;;;;2.70;2.40;;;17.80;99.90;;;;;;5055577;28;20533;-71
2022/06/23 02:30:46;;;;;;;3.37;2.87;;;17.70;99.90;;;;;;5057093;28;20601;-71
2022/06/23 02:33:20;;;;;;;4.67;2.43;;;17.20;99.90;;;;;;5054650;28;20529;-71
2022/06/23 02:35:53;;;;;;;5.40;2.83;;;16.60;99.90;;;;;;5055499;28;20556;-71
2022/06/23 02:38:24;;;;;;;2.83;2.40;;;16.60;99.90;;;;;;5050137;28;20452;-71
2022/06/23 02:40:55;;;;;;;3.20;2.30;;;16.70;99.90;;;;;;5052228;28;20455;-72
2022/06/23 02:43:28;;;;;;;2.47;2.23;;;16.50;99.90;;;;;;5050379;28;21034;-72
2022/06/23 02:46:22;;;;;;;6.67;2.73;;;16.30;99.90;;;;;;5055485;28;21029;-72
2022/06/23 02:49:21;;;;;;;2.30;2.00;;;16.20;99.90;;;;;;5058990;28;20541;-71
2022/06/23 02:52:23;;;;;;;2.53;2.33;;;16.40;99.90;;;;;;5050538;28;20997;-71
2022/06/23 02:55:05;;;;;;;3.03;2.83;;;16.90;99.90;;;;;;5036392;28;20482;-71
2022/06/23 02:57:41;;;;;;;2.37;2.17;;;17.00;99.90;;;;;;5052742;28;20464;-71
2022/06/23 03:00:17;;;;;;;4.57;2.63;;;17.10;99.90;;;;;;5039808;28;20458;-72
2022/06/23 03:02:54;;;;;;;4.10;2.37;;;17.00;99.90;;;;;;5043747;28;20848;-72
2022/06/23 03:05:28;;;;;;;2.47;2.03;;;17.10;99.90;;;;;;5043832;28;20515;-72
2022/06/23 03:08:02;;;;;;;2.50;2.30;;;16.90;99.90;;;;;;5043611;28;20854;-70
2022/06/23 03:10:35;;;;;;;2.60;2.40;;;16.60;99.90;;;;;;5043911;28;20994;-70
2022/06/23 03:13:08;;;;;;;4.10;2.97;;;16.60;99.90;;;;;;5048850;28;20486;-69
2022/06/23 03:15:41;;;;;;;3.80;2.70;;;16.80;99.90;;;;;;5036104;28;20532;-69
2022/06/23 03:18:19;;;;;;;3.10;2.60;;;16.90;99.90;;;;;;5036821;28;20493;-69
2022/06/23 03:20:52;;;;;;;8.70;2.73;;;16.70;99.90;;;;;;5049119;23;21038;-68
2022/06/23 03:23:26;;;;;;;3.90;2.30;;;16.60;99.90;;;;;;5028608;28;20456;-69
2022/06/23 03:25:58;;;;;;;4.47;2.40;;;16.80;99.90;;;;;;5035679;28;20536;-69
2022/06/23 03:28:32;;;;;;;3.77;2.47;;;17.00;99.90;;;;;;5027497;28;20471;-69
2022/06/23 03:31:03;;;;;;;2.93;2.73;;;17.00;99.90;;;;;;5027431;28;20477;-68
2022/06/23 03:33:38;;;;;;;3.10;2.30;;;17.00;99.90;;;;;;5031723;28;20486;-69
2022/06/23 03:36:15;;;;;;;2.73;2.37;;;17.00;99.90;;;;;;5024583;28;20467;-69
2022/06/23 03:41:38;;;;;;;4.87;3.20;;;17.20;99.90;;;;;;5029947;28;20455;-69
2022/06/23 03:44:10;;;;;;;5.17;2.53;;;17.30;99.90;;;;;;5024545;28;20452;-70
2022/06/23 03:46:41;;;;;;;3.40;3.10;;;17.20;99.90;;;;;;5028369;28;20563;-70
2022/06/23 03:49:17;;;;;;;4.37;2.10;;;17.30;99.90;;;;;;5012160;28;20529;-69
2022/06/23 03:51:51;;;;;;;3.90;2.60;;;17.20;99.90;;;;;;5023216;28;20479;-69
2022/06/23 03:54:22;;;;;;;4.63;2.40;;;17.20;99.90;;;;;;5027767;28;20475;-70
2022/06/23 03:56:53;;;;;;;6.03;2.87;;;17.20;99.90;;;;;;5021101;28;20897;-70
2022/06/23 03:59:25;;;;;;;4.63;2.40;;;17.20;99.90;;;;;;5027611;28;20467;-69
2022/06/23 04:01:57;;;;;;;2.53;2.10;;;17.30;99.90;;;;;;5038178;28;20468;-70
2022/06/23 04:04:39;;;;;;;3.40;2.77;;;17.30;99.90;;;;;;5031681;28;20431;-70
2022/06/23 04:07:34;;;;;;;3.20;2.73;;;17.20;99.90;;;;;;5039472;28;20826;-69
2022/06/23 04:10:04;;;;;;;5.03;2.90;;;17.20;99.90;;;;;;5035209;28;20468;-69
2022/06/23 04:12:33;;;;;;;7.83;2.97;;;17.30;99.90;;;;;;5023675;28;20475;-69
2022/06/23 04:15:05;;;;;;;4.00;3.20;;;17.40;99.90;;;;;;5022908;28;20660;-69
2022/06/23 04:17:38;;;;;;;6.33;2.30;;;17.50;99.90;;;;;;5025697;28;20834;-68
2022/06/23 04:20:15;;;;;;;5.10;2.73;;;17.40;99.90;;;;;;5020479;28;20463;-69
2022/06/23 04:22:46;;;;;;;2.97;2.67;;;17.30;99.90;;;;;;5024032;28;20452;-69
2022/06/23 04:25:19;;;;;;;3.27;2.80;;;17.30;99.90;;;;;;5029826;28;20534;-70
2022/06/23 04:27:50;;;;;;;5.33;3.20;;;17.50;99.90;;;;;;5033186;28;20487;-70
2022/06/23 04:30:32;;;;;;;4.63;2.40;;;17.50;99.90;;;;;;5031917;28;20836;-69
2022/06/23 04:33:04;;;;;;;3.03;2.73;;;17.50;99.90;;;;;;5039216;28;20767;-70
2022/06/23 04:35:36;;;;;;;3.17;2.90;;;17.50;99.90;;;;;;5032919;28;21991;-70
2022/06/23 04:38:12;;;;;;;4.13;3.67;;;17.50;99.90;;;;;;5031796;28;20463;-70
2022/06/23 04:40:48;;;;;;;5.90;3.30;;;17.60;99.90;;;;;;5035954;28;21068;-69
2022/06/23 04:43:19;;;;;;;4.43;3.50;;;17.60;99.90;;;;;;5022095;28;20475;-70
2022/06/23 04:45:55;;;;;;;3.30;2.90;;;17.80;99.90;;;;;;5030365;28;20470;-70
2022/06/23 04:48:28;;;;;;;6.80;3.60;;;17.90;99.90;;;;;;5037617;28;21010;-68
2022/06/23 04:51:00;;;;;;;5.23;3.20;;;18.00;99.90;;;;;;5040149;28;20484;-69
2022/06/23 04:53:40;;;;;;;4.93;2.87;;;18.10;99.90;;;;;;5037638;28;21007;-70
2022/06/23 04:56:13;;;;;;;7.90;3.20;;;18.20;99.90;;;;;;5041674;28;20457;-68
2022/06/23 04:58:45;;;;;;;5.10;2.70;;;18.30;99.90;;;;;;5041686;28;20462;-69
2022/06/23 05:01:15;;;;;;;3.10;2.60;;;18.40;99.90;;;;;;5041440;28;20470;-69
2022/06/23 05:03:48;;;;;;;3.87;2.83;;;18.60;99.90;;;;;;5037872;28;21000;-69
2022/06/23 05:06:26;;;;;;;10.60;3.80;;;18.90;99.90;;;;;;5040417;28;20966;-69
2022/06/23 05:08:53;;;;;;;5.20;3.87;;;19.00;99.90;;;;;;5046276;28;20494;-68
2022/06/23 05:11:28;;;;;;;5.00;2.87;;;19.10;99.90;;;;;;5034059;28;20690;-69
2022/06/23 05:13:59;;;;;;;3.90;2.93;;;19.20;99.90;;;;;;5032756;28;20482;-69
2022/06/23 05:16:30;;;;;;;6.03;4.17;;;19.30;99.90;;;;;;5046264;28;20513;-69
2022/06/23 05:19:00;;;;;;;6.10;3.10;;;19.40;99.90;;;;;;5041269;28;20444;-70
2022/06/23 05:21:37;;;;;;;5.37;3.70;;;19.40;99.90;;;;;;5043102;28;20985;-69
2022/06/23 05:24:09;;;;;;;3.73;3.00;;;19.80;99.90;;;;;;5042858;28;20444;-69
2022/06/23 05:26:41;;;;;;;3.00;2.80;;;20.10;99.90;;;;;;5040557;28;20833;-69
2022/06/23 05:29:17;;;;;;;3.70;3.40;;;20.30;99.90;;;;;;5043467;28;20861;-68
2022/06/23 05:31:48;;;;;;;3.37;3.07;;;20.60;99.90;;;;;;5045292;28;20916;-68
2022/06/23 05:34:19;;;;;;;6.00;3.20;;;20.90;99.90;;;;;;5043260;28;20628;-68
2022/06/23 05:36:53;;;;;;;10.10;3.90;;;21.40;99.90;;;;;;5046818;28;20451;-69
2022/06/23 05:39:26;;;;;;;4.60;3.30;;;21.60;99.90;;;;;;5044250;28;20831;-69
2022/06/23 05:41:58;;;;;;;4.20;2.77;;;21.80;99.90;;;;;;5045750;28;20464;-69
2022/06/23 05:44:29;;;;;;;12.37;3.60;;;22.10;99.90;;;;;;5038896;28;20527;-69
2022/06/23 05:47:00;;;;;;;7.53;4.20;;;22.40;99.90;;;;;;5045445;28;20450;-69
2022/06/23 05:49:31;;;;;;;9.33;3.13;;;22.60;99.90;;;;;;5045245;28;20865;-69
2022/06/23 05:52:02;;;;;;;5.43;3.97;;;23.00;99.90;;;;;;5045214;28;20890;-69
2022/06/23 05:54:34;;;;;;;7.13;3.20;;;23.50;99.90;;;;;;5037541;28;20561;-69
2022/06/23 05:57:12;;;;;;;3.43;2.90;;;23.90;99.90;;;;;;5042395;28;20444;-69
2022/06/23 05:59:54;;;;;;;4.43;2.33;;;24.10;99.90;;;;;;5040831;28;20461;-70
2022/06/23 06:02:27;;;;;;;3.70;2.97;;;24.00;99.90;;;;;;5040747;28;20462;-69
2022/06/23 06:04:57;;;;;;;3.27;2.43;;;23.80;99.90;;;;;;5043751;28;20458;-69
2022/06/23 06:07:32;;;;;;;4.63;3.27;;;23.60;99.90;;;;;;5047446;28;20482;-69
2022/06/23 06:09:59;;;;;;;3.53;2.90;;;23.60;99.90;;;;;;5047956;28;20542;-69
2022/06/23 06:12:32;;;;;;;2.70;2.20;;;24.10;99.90;;;;;;5038461;28;20445;-69
2022/06/23 06:15:04;;;;;;;3.77;2.60;;;24.40;99.90;;;;;;5039435;28;20480;-69
2022/06/23 06:17:33;;;;;;;5.33;2.37;;;25.00;99.90;;;;;;5042568;28;20456;-69
2022/06/23 06:20:04;;;;;;;4.80;2.47;;;25.00;99.90;;;;;;5041493;28;20949;-69
2022/06/23 06:22:44;;;;;;;3.20;2.90;;;25.30;99.90;;;;;;5039468;28;20470;-69
2022/06/23 06:25:21;;;;;;;9.20;3.60;;;25.50;99.90;;;;;;5040578;28;20460;-69
2022/06/23 06:27:48;;;;;;;12.50;3.30;;;25.50;99.90;;;;;;5045723;28;21119;-69
2022/06/23 06:30:18;;;;;;;3.73;2.80;;;25.90;99.90;;;;;;5039559;28;20466;-69
2022/06/23 06:32:47;;;;;;;5.53;2.80;;;25.90;99.90;;;;;;5040491;28;20712;-69
2022/06/23 06:35:22;;;;;;;6.90;2.97;;;26.20;99.20;;;;;;5039386;28;20499;-69
2022/06/23 06:37:54;;;;;;;13.00;2.60;;;26.30;99.10;;;;;;5043966;28;20544;-69
2022/06/23 06:40:21;;;;;;;2.73;2.30;;;26.30;99.10;;;;;;5039898;28;20472;-70
2022/06/23 06:42:51;;;;;;;4.07;3.03;;;26.00;98.30;;;;;;5042095;28;20462;-70
2022/06/23 06:45:21;;;;;;;3.43;2.90;;;26.30;99.10;;;;;;5038354;28;21796;-69
2022/06/23 06:47:48;;;;;;;3.90;2.63;;;26.60;97.80;;;;;;5041103;28;20452;-69
2022/06/23 06:50:28;;;;;;;3.23;2.30;;;26.60;97.50;;;;;;5041627;28;20455;-69
2022/06/23 06:52:58;;;;;;;2.63;2.33;;;26.60;97.80;;;;;;5038618;28;20468;-70
2022/06/23 06:55:29;;;;;;;4.47;3.20;;;27.10;96.50;;;;;;5041140;28;20496;-69
2022/06/23 06:58:02;;;;;;;3.37;2.40;;;27.40;96.60;;;;;;5043070;28;20466;-70
2022/06/23 07:00:34;;;;;;;5.60;2.80;;;28.10;95.40;;;;;;5036213;28;20490;-70
2022/06/23 07:03:04;;;;;;;4.77;2.93;;;28.10;94.00;;;;;;5040863;28;20948;-70
2022/06/23 07:05:37;;;;;;;4.80;2.30;;;28.20;94.50;;;;;;5044031;28;20440;-69
2022/06/23 07:08:09;;;;;;;3.03;2.57;;;28.40;92.80;;;;;;5039276;28;20444;-69
2022/06/23 07:10:42;;;;;;;3.70;2.60;;;28.40;92.90;;;;;;5045249;28;20996;-69
2022/06/23 07:13:18;;;;;;;2.40;2.20;;;28.30;92.90;;;;;;5041019;28;20437;-70
2022/06/23 07:15:52;;;;;;;6.67;2.50;;;28.70;93.30;;;;;;5042633;28;20444;-69
2022/06/23 07:18:24;;;;;;;6.33;2.80;;;29.30;92.70;;;;;;5038948;28;20548;-70
2022/06/23 07:20:57;;;;;;;5.53;3.43;;;29.70;90.90;;;;;;5038446;28;21002;-69
2022/06/23 07:23:30;;;;;;;4.60;3.30;;;30.10;88.50;;;;;;5043917;28;20963;-70
2022/06/23 07:26:05;;;;;;;2.60;2.40;;;30.50;89.30;;;;;;5041141;28;20536;-69
2022/06/23 07:28:37;;;;;;;5.50;4.00;;;30.80;89.10;;;;;;5037408;28;20653;-69
2022/06/23 07:31:11;;;;;;;2.77;2.40;;;30.60;86.80;;;;;;5038205;28;20549;-70
2022/06/23 07:33:46;;;;;;;4.47;3.17;;;30.30;86.80;;;;;;5040845;28;20502;-70
2022/06/23 07:36:17;;;;;;;5.87;3.70;;;30.30;88.50;;;;;;5041099;28;20981;-69
2022/06/23 07:38:50;;;;;;;5.07;2.37;;;30.40;87.30;;;;;;5039473;28;20459;-70
2022/06/23 07:41:23;;;;;;;5.23;3.97;;;31.30;87.00;;;;;;5042608;28;20577;-70
2022/06/23 07:43:57;;;;;;;4.50;2.60;;;31.10;84.40;;;;;;5040085;28;20461;-69
2022/06/23 07:46:24;;;;;;;6.27;3.00;;;30.60;86.40;;;;;;5039570;28;20550;-71
2022/06/23 07:48:51;;;;;;;3.83;2.80;;;31.40;84.90;;;;;;5041363;28;20520;-69
2022/06/23 07:51:18;;;;;;;3.07;2.77;;;31.50;82.80;;;;;;5036848;28;20498;-69
2022/06/23 07:53:50;;;;;;;2.40;2.20;;;31.90;82.40;;;;;;5038825;28;20546;-70
2022/06/23 07:56:19;;;;;;;10.60;2.97;;;31.70;83.30;;;;;;5042815;28;20455;-70
2022/06/23 07:58:49;;;;;;;6.10;2.83;;;32.00;82.10;;;;;;5043472;28;20551;-70
2022/06/23 08:01:19;;;;;;;3.73;3.00;;;32.50;80.40;;;;;;5037522;28;20560;-69
2022/06/23 08:03:55;;;;;;;2.80;2.60;;;33.00;78.60;;;;;;5041817;28;20525;-70
2022/06/23 08:06:24;;;;;;;4.30;2.23;;;32.70;78.30;;;;;;5039861;28;20476;-70
2022/06/23 08:08:56;;;;;;;7.30;2.70;;;32.80;77.70;;;;;;5037013;28;20474;-71
2022/06/23 08:14:13;;;;;;;6.73;2.73;;;32.80;77.30;;;;;;5041959;28;20482;-70
2022/06/23 08:16:51;;;;;;;4.40;2.70;;;33.00;75.80;;;;;;5040152;28;20459;-71
2022/06/23 08:19:30;;;;;;;4.00;3.27;;;33.30;76.10;;;;;;5042155;28;20574;-68
2022/06/23 08:22:03;;;;;;;8.13;3.37;;;33.80;74.90;;;;;;5043091;28;20488;-69
2022/06/23 08:24:32;;;;;;;4.57;3.13;;;34.10;73.40;;;;;;5041102;28;20460;-68
2022/06/23 08:27:02;;;;;;;6.33;2.97;;;33.60;73.80;;;;;;5040844;28;20466;-68
2022/06/23 08:29:34;;;;;;;3.67;2.83;;;33.90;73.10;;;;;;5034009;28;20543;-69
2022/06/23 08:32:01;;;;;;;8.90;3.07;;;34.00;74.80;;;;;;5042900;28;20468;-70
2022/06/23 08:34:29;;;;;;;7.53;3.70;;;34.50;72.80;;;;;;5042477;28;20484;-68
2022/06/23 08:37:03;;;;;;;4.90;2.80;;;34.70;71.20;;;;;;5038290;28;20542;-69
2022/06/23 08:39:41;;;;;;;5.00;3.30;;;35.30;67.90;;;;;;5033958;28;20608;-69
2022/06/23 08:42:16;;;;;;;12.07;3.60;;;35.20;67.40;;;;;;5036260;28;20482;-69
2022/06/23 08:44:52;;;;;;;8.60;2.97;;;35.70;67.60;;;;;;5040406;28;20456;-69
2022/06/23 08:47:25;;;;;;;9.23;6.03;;;35.30;66.80;;;;;;5035381;28;20478;-69
2022/06/23 08:49:56;;;;;;;3.10;2.60;;;35.60;69.00;;;;;;5037676;28;20532;-70
2022/06/23 08:52:31;;;;;;;3.83;3.53;;;36.80;63.80;;;;;;5041722;28;20575;-70
2022/06/23 08:55:05;;;;;;;3.90;2.80;;;36.50;62.90;;;;;;5046346;28;20483;-70
2022/06/23 08:57:35;;;;;;;3.60;2.70;;;36.40;62.40;;;;;;5047630;28;20455;-70
2022/06/23 09:00:06;;;;;;;11.13;2.73;;;36.60;60.20;;;;;;5046258;28;20483;-70
2022/06/23 09:02:41;;;;;;;4.60;3.03;;;36.30;62.90;;;;;;5049455;28;20467;-70
2022/06/23 09:05:16;;;;;;;3.77;3.40;;;36.70;62.00;;;;;;5041443;28;20510;-70
2022/06/23 09:07:51;;;;;;;4.50;2.87;;;36.80;61.30;;;;;;5044673;28;20444;-70
2022/06/23 09:10:32;;;;;;;5.63;2.90;;;37.00;59.60;;;;;;5045679;28;20823;-70
2022/06/23 09:13:09;;;;;;;4.27;3.77;;;37.20;57.60;;;;;;5046481;28;20741;-70
2022/06/23 09:16:06;;;;;;;5.23;3.27;;;37.20;58.80;;;;;;5043522;28;20474;-68
2022/06/23 09:19:08;;;;;;;5.10;3.47;;;37.70;57.10;;;;;;5038750;28;20464;-69
2022/06/23 09:21:53;;;;;;;3.20;2.90;;;38.50;56.30;;;;;;5053761;22;20987;-69
2022/06/23 09:24:55;;;;;;;4.20;3.10;;;38.60;55.00;;;;;;5018681;28;20459;-70
2022/06/23 09:27:34;;;;;;;6.50;3.17;;;37.60;56.80;;;;;;5021781;28;20886;-69
2022/06/23 09:30:06;;;;;;;4.17;3.77;;;37.60;56.60;;;;;;5017127;28;20454;-71
2022/06/23 09:32:57;;;;;;;5.83;3.00;;;38.00;55.50;;;;;;5012991;28;20469;-69
2022/06/23 09:35:49;;;;;;;5.00;3.00;;;37.90;54.10;;;;;;5005250;28;20493;-70
2022/06/23 09:38:40;;;;;;;3.07;2.77;;;37.90;54.30;;;;;;5001956;28;20889;-69
2022/06/23 09:41:19;;;;;;;2.83;2.63;;;37.90;53.50;;;;;;5004301;28;20448;-70
2022/06/23 09:44:31;;;;;;;4.03;3.17;;;38.40;54.40;;;;;;5004861;28;20437;-70
2022/06/23 09:47:21;;;;;;;3.23;2.67;;;39.00;51.60;;;;;;4985064;28;20848;-69
2022/06/23 09:50:14;;;;;;;3.03;2.77;;;37.20;52.30;;;;;;5003599;28;20449;-70
2022/06/23 09:53:17;;;;;;;4.20;2.27;;;37.10;52.30;;;;;;4999970;28;20485;-69
2022/06/23 09:56:24;;;;;;;4.50;2.10;;;37.20;51.00;;;;;;5003519;28;20477;-69
2022/06/23 09:59:17;;;;;;;2.80;2.57;;;36.30;51.00;;;;;;4984872;28;20452;-70
2022/06/23 10:01:52;;;;;;;8.47;3.47;;;37.00;51.30;;;;;;4998664;28;20478;-70
2022/06/23 10:04:30;;;;;;;2.60;2.40;;;38.20;50.60;;;;;;5004794;28;20553;-70
2022/06/23 10:07:40;;;;;;;3.23;2.90;;;38.80;48.80;;;;;;5002127;28;20450;-70
2022/06/23 10:10:26;;;;;;;3.33;3.03;;;38.70;48.00;;;;;;4997013;28;20595;-70
2022/06/23 10:13:14;;;;;;;5.73;2.50;;;38.20;47.30;;;;;;5004773;28;20462;-70
2022/06/23 10:16:06;;;;;;;2.83;2.60;;;38.40;47.40;;;;;;5002621;28;20859;-70
2022/06/23 10:18:51;;;;;;;6.77;3.40;;;39.00;46.20;;;;;;5004099;28;20442;-70
2022/06/23 10:21:33;;;;;;;10.50;2.70;;;39.70;45.30;;;;;;5001743;28;20446;-71
2022/06/23 10:24:33;;;;;;;5.80;2.53;;;39.40;47.00;;;;;;5002481;28;20450;-71
2022/06/23 10:27:16;;;;;;;4.13;3.73;;;39.20;45.70;;;;;;4993669;28;20470;-71
2022/06/23 10:30:08;;;;;;;2.63;2.40;;;38.80;45.80;;;;;;5002727;28;20561;-71
2022/06/23 10:33:03;;;;;;;2.53;2.33;;;39.10;46.10;;;;;;4999438;28;20486;-71
2022/06/23 10:35:44;;;;;;;4.90;3.00;;;38.80;45.80;;;;;;4992542;28;20479;-71
2022/06/23 10:38:48;;;;;;;3.13;2.83;;;39.00;46.00;;;;;;4999125;28;20826;-71
2022/06/23 10:41:31;;;;;;;5.63;2.73;;;39.20;46.00;;;;;;4984963;28;20852;-71
2022/06/23 10:44:05;;;;;;;3.40;3.10;;;39.30;46.30;;;;;;5002831;28;20441;-72
2022/06/23 10:46:38;;;;;;;6.57;4.27;;;39.40;45.20;;;;;;5004146;28;20444;-71
2022/06/23 10:49:30;;;;;;;5.73;2.83;;;39.40;44.60;;;;;;5006184;28;20447;-71
2022/06/23 10:52:15;;;;;;;2.63;2.43;;;39.90;44.40;;;;;;5000981;28;20504;-71
2022/06/23 10:55:26;;;;;;;2.87;2.57;;;40.60;43.60;;;;;;5000744;28;20855;-71
2022/06/23 10:58:23;;;;;;;3.07;2.87;;;40.80;42.30;;;;;;4970324;28;20652;-71
2022/06/23 11:01:00;;;;;;;4.13;2.47;;;39.90;43.60;;;;;;5000506;28;20458;-71
2022/06/23 11:03:47;;;;;;;6.10;4.00;;;39.40;42.60;;;;;;5002153;28;20846;-72
2022/06/23 11:06:32;;;;;;;6.30;2.90;;;39.60;42.90;;;;;;5001599;28;20553;-70
2022/06/23 11:09:12;;;;;;;4.20;3.60;;;40.70;42.60;;;;;;4999020;28;20834;-71
2022/06/23 11:11:52;;;;;;;2.73;2.53;;;41.10;42.50;;;;;;4999743;28;20508;-71
2022/06/23 11:14:32;;;;;;;5.93;3.10;;;40.60;41.80;;;;;;5001800;28;20484;-72
2022/06/23 11:17:06;;;;;;;3.33;2.87;;;40.70;43.40;;;;;;5002569;28;20943;-71
2022/06/23 11:19:47;;;;;;;3.60;3.30;;;40.50;42.10;;;;;;5000568;28;20649;-71
2022/06/23 11:22:32;;;;;;;2.83;2.43;;;40.50;41.90;;;;;;5002177;28;20830;-71
2022/06/23 11:25:11;;;;;;;3.90;2.60;;;40.60;41.00;;;;;;5001361;28;20513;-71
2022/06/23 11:27:49;;;;;;;3.20;2.47;;;40.70;42.30;;;;;;5001335;28;20979;-71
2022/06/23 11:30:22;;;;;;;2.83;2.63;;;40.80;40.80;;;;;;5001509;28;20442;-72
2022/06/23 11:33:26;;;;;;;2.67;2.47;;;41.30;40.90;;;;;;5003244;28;20540;-71
2022/06/23 11:36:12;;;;;;;4.00;2.77;;;41.50;40.40;;;;;;4977169;28;20841;-72
2022/06/23 11:39:09;;;;;;;2.80;2.53;;;41.70;41.10;;;;;;4999828;28;20457;-71
2022/06/23 11:42:12;;;;;;;2.70;2.50;;;41.10;40.30;;;;;;4998733;28;20481;-71
2022/06/23 11:44:54;;;;;;;3.10;2.80;;;41.20;41.30;;;;;;4988732;28;20465;-72
2022/06/23 11:47:32;;;;;;;6.43;2.70;;;41.60;40.80;;;;;;5002478;28;20712;-71
2022/06/23 11:50:07;;;;;;;3.10;2.80;;;42.20;40.00;;;;;;5002167;28;20460;-71
2022/06/23 11:52:47;;;;;;;3.40;3.00;;;41.50;39.50;;;;;;4993417;28;20565;-71
2022/06/23 11:55:38;;;;;;;3.77;2.77;;;41.60;39.90;;;;;;5000188;28;20565;-71
2022/06/23 11:58:25;;;;;;;3.70;2.90;;;42.00;39.90;;;;;;5002351;28;20524;-71
2022/06/23 12:01:15;;;;;;;3.63;2.97;;;41.20;40.40;;;;;;4994590;28;20573;-71
2022/06/23 12:04:05;;;;;;;4.80;3.20;;;41.20;40.90;;;;;;5001070;28;20793;-72
2022/06/23 12:06:46;;;;;;;3.63;3.13;;;41.90;39.70;;;;;;4995372;28;20479;-72
2022/06/23 12:09:23;;;;;;;2.87;2.67;;;41.70;39.80;;;;;;4996834;28;20843;-72
2022/06/23 12:11:51;;;;;;;3.93;2.60;;;42.80;41.00;;;;;;4998924;28;20495;-72
2022/06/23 12:14:19;;;;;;;4.07;3.03;;;43.40;39.50;;;;;;5002442;28;20550;-72
2022/06/23 12:16:52;;;;;;;3.00;2.80;;;42.00;40.60;;;;;;4998669;28;20504;-71
2022/06/23 12:19:22;;;;;;;5.03;2.63;;;40.80;40.50;;;;;;5003096;28;20450;-71
2022/06/23 12:21:58;;;;;;;3.50;3.20;;;40.80;39.90;;;;;;5001156;28;20469;-72
2022/06/23 12:24:32;;;;;;;2.97;2.67;;;41.20;40.20;;;;;;5002932;28;20471;-71
2022/06/23 12:27:11;;;;;;;6.50;2.60;;;41.10;39.70;;;;;;4986969;28;20989;-71
2022/06/23 12:29:46;;;;;;;3.43;3.17;;;40.70;40.80;;;;;;4993792;28;21462;-71
2022/06/23 12:32:16;;;;;;;2.67;2.47;;;40.90;40.30;;;;;;4993899;28;20614;-72
2022/06/23 12:34:51;;;;;;;2.57;2.37;;;41.20;39.60;;;;;;4998944;28;20461;-72
2022/06/23 12:37:29;;;;;;;5.97;2.93;;;40.30;41.00;;;;;;5004781;28;20449;-71
2022/06/23 12:40:02;;;;;;;3.40;3.10;;;40.90;40.90;;;;;;5001973;28;20485;-72
2022/06/23 12:42:35;;;;;;;3.43;3.13;;;42.10;38.50;;;;;;5003567;28;20482;-71
2022/06/23 12:45:34;;;;;;;3.10;2.70;;;42.70;39.20;;;;;;5005888;28;20446;-71
2022/06/23 12:48:26;;;;;;;7.93;2.93;;;42.20;39.80;;;;;;5001944;28;20449;-71
2022/06/23 12:51:04;;;;;;;4.70;3.03;;;42.70;39.60;;;;;;5004863;28;20466;-72
2022/06/23 12:53:56;;;;;;;2.83;2.63;;;41.90;39.20;;;;;;5006866;28;20539;-72
2022/06/23 12:56:47;;;;;;;3.20;2.90;;;40.00;39.60;;;;;;5002540;28;20774;-72
2022/06/23 12:59:22;;;;;;;3.63;2.73;;;39.20;40.50;;;;;;5004987;28;20450;-72
2022/06/23 13:01:55;;;;;;;3.40;2.53;;;40.00;39.90;;;;;;5004468;28;20554;-72
2022/06/23 13:04:30;;;;;;;2.80;2.60;;;41.00;40.30;;;;;;5002356;28;20471;-72
2022/06/23 13:07:05;;;;;;;3.30;3.00;;;42.20;38.60;;;;;;5005956;28;20939;-72
2022/06/23 13:09:40;;;;;;;3.40;3.10;;;41.90;38.50;;;;;;4996468;28;20464;-72
2022/06/23 13:12:13;;;;;;;6.10;3.27;;;40.50;39.20;;;;;;5002017;28;20477;-72
2022/06/23 13:14:50;;;;;;;3.30;2.60;;;40.00;40.10;;;;;;5002675;28;20457;-72
2022/06/23 13:17:25;;;;;;;3.00;2.70;;;40.70;40.80;;;;;;5000819;28;20449;-70
2022/06/23 13:19:56;;;;;;;4.53;2.87;;;41.20;39.00;;;;;;5004813;28;20457;-70
2022/06/23 13:22:23;;;;;;;3.53;3.17;;;39.80;39.60;;;;;;4994914;28;20556;-71
2022/06/23 13:24:54;;;;;;;3.27;2.67;;;38.30;40.80;;;;;;5005907;28;20537;-71
2022/06/23 13:27:24;;;;;;;3.10;2.87;;;38.20;41.50;;;;;;5003265;28;20454;-71
2022/06/23 13:29:58;;;;;;;7.00;3.00;;;38.80;41.40;;;;;;4994370;28;20532;-71
2022/06/23 13:32:32;;;;;;;7.83;3.27;;;39.90;40.40;;;;;;5001152;28;20735;-71
2022/06/23 13:35:05;;;;;;;3.70;2.83;;;40.30;40.40;;;;;;5001959;28;20931;-71
2022/06/23 13:37:39;;;;;;;4.33;3.03;;;41.30;39.60;;;;;;5004198;28;20471;-71
2022/06/23 13:40:19;;;;;;;3.93;2.70;;;42.00;38.30;;;;;;4999487;28;20575;-70